Impacts METAR Board
IDs:

KEDC - Austin/Executive Arp, TX, US

Updated at: 2200 UTC 29 May 2020
Potential Impact None Slight Moderate High
Time 29/10Z 29/11Z 29/12Z 29/13Z 29/14Z 29/15Z 29/16Z 29/17Z 29/18Z 29/19Z 29/20Z 29/21Z 29/22Z
Temp68 68 68 72 73 77 79 79 82 84 84 86 86
Dewpt66 66 66 66 66 64 64 64 63 64 61 57 55
Altim30.06 30.06 30.09 30.11 30.12 30.12 30.12 30.14 30.12 30.13 30.12 30.11 30.09
VIS10 10 10 10 10 10 10 10 10 10 10 10 10
CIG-- -- -- 49 -- -- -- -- -- -- -- -- --
CoverCLRCLRSCTBKNCLRCLRCLRSCTCLRCLRCLRCLRCLR
FltCatVFRVFRVFRVFRVFRVFRVFRVFRVFRVFRVFRVFRVFR
WX--------------------------
WDir03303303502020203601020401020
WSpd0 6 7 8 11 13 12 11 13 12 13 12 13
WGst-- -- -- -- 17 -- -- 16 17 -- -- 16 17
Raw hourly METARs
KEDC 290955Z AUTO 00000KT 10SM CLR 20/19 A3006 RMK AO2
KEDC 291055Z AUTO 33006KT 10SM CLR 20/19 A3006 RMK AO2
KEDC 291155Z AUTO 33007KT 10SM SCT047 20/19 A3009 RMK AO2
KEDC 291255Z AUTO 35008KT 10SM BKN049 22/19 A3011 RMK AO2
KEDC 291355Z AUTO 02011G17KT 10SM CLR 23/19 A3012 RMK AO2
KEDC 291455Z AUTO 02013KT 10SM CLR 25/18 A3012 RMK AO2
KEDC 291555Z AUTO 02012KT 10SM CLR 26/18 A3012 RMK AO2
KEDC 291655Z AUTO 36011G16KT 10SM SCT032 SCT039 26/18 A3014 RMK AO2
KEDC 291755Z AUTO 01013G17KT 10SM CLR 28/17 A3012 RMK AO2
KEDC 291855Z AUTO 02012KT 10SM CLR 29/18 A3013 RMK AO2
KEDC 291955Z AUTO 04013KT 10SM CLR 29/16 A3012 RMK AO2
KEDC 292055Z AUTO 01012G16KT 10SM CLR 30/14 A3011 RMK AO2
KEDC 292155Z AUTO 02013G17KT 10SM CLR 30/13 A3009 RMK AO2